createdAt,value
2022-09-03T00:00:09.848Z,0.00
2022-09-03T00:01:09.874Z,0.00
2022-09-03T00:02:09.959Z,0.00
2022-09-03T00:03:09.992Z,0.00
2022-09-03T00:04:09.953Z,0.00
2022-09-03T00:05:09.980Z,0.00
2022-09-03T00:06:10.006Z,0.00
2022-09-03T00:07:10.034Z,0.00
2022-09-03T00:08:10.060Z,0.00
2022-09-03T00:09:10.087Z,0.00
2022-09-03T00:10:10.436Z,0.00
2022-09-03T00:11:10.138Z,0.00
2022-09-03T00:12:10.162Z,0.00
2022-09-03T00:13:10.190Z,0.00
2022-09-03T00:14:10.215Z,0.00
2022-09-03T00:15:10.243Z,0.00
2022-09-03T00:16:10.411Z,0.00
2022-09-03T00:17:10.293Z,0.00
2022-09-03T00:18:10.326Z,0.00
2022-09-03T00:19:10.346Z,0.00
2022-09-03T00:20:10.374Z,0.00
2022-09-03T00:21:10.399Z,0.00
2022-09-03T00:22:10.427Z,0.00
2022-09-03T00:23:10.455Z,0.00
2022-09-03T00:24:10.900Z,0.00
2022-09-03T00:25:10.507Z,0.00
2022-09-03T00:26:10.532Z,0.00
2022-09-03T00:27:10.561Z,0.00
2022-09-03T00:28:10.584Z,0.00
2022-09-03T00:29:10.611Z,0.00
2022-09-03T00:30:11.204Z,0.00
2022-09-03T00:31:10.721Z,0.00
2022-09-03T00:32:10.693Z,0.00
2022-09-03T00:33:10.741Z,0.00
2022-09-03T00:34:10.741Z,0.00
2022-09-03T00:35:10.768Z,0.00
2022-09-03T00:36:10.793Z,0.00
2022-09-03T00:37:15.269Z,0.00
2022-09-03T00:38:10.845Z,0.00
2022-09-03T00:39:10.874Z,0.00
2022-09-03T00:40:10.897Z,0.00
2022-09-03T00:41:18.096Z,0.00
2022-09-03T00:43:15.418Z,0.00
2022-09-03T00:44:14.970Z,0.00
2022-09-03T00:46:19.021Z,0.00
2022-09-03T00:47:19.016Z,0.00
2022-09-03T00:49:23.512Z,0.00
2022-09-03T00:50:23.054Z,0.00
2022-09-03T00:52:28.804Z,0.00
2022-09-03T00:53:27.089Z,0.00
2022-09-03T00:55:31.578Z,0.00
2022-09-03T00:56:31.151Z,0.00
2022-09-03T00:58:35.164Z,0.00
2022-09-03T00:59:35.183Z,0.00
2022-09-03T01:01:39.832Z,0.00
2022-09-03T01:02:39.312Z,0.00
2022-09-03T01:04:43.252Z,0.00
2022-09-03T01:05:43.260Z,0.00
2022-09-03T01:07:48.253Z,0.00
2022-09-03T01:08:49.361Z,0.00
2022-09-03T01:09:47.820Z,0.00
2022-09-03T01:10:47.845Z,0.00
2022-09-03T01:11:47.868Z,0.00
2022-09-03T01:12:47.894Z,0.00
2022-09-03T01:13:47.918Z,0.00
2022-09-03T01:14:47.952Z,0.00
2022-09-03T01:15:48.034Z,0.00
2022-09-03T01:16:48.001Z,0.00
2022-09-03T01:17:48.023Z,0.00
2022-09-03T01:18:48.080Z,0.00
2022-09-03T01:19:48.075Z,0.00
2022-09-03T01:20:48.107Z,0.00
2022-09-03T01:21:48.129Z,0.00
2022-09-03T01:22:48.204Z,0.00
2022-09-03T01:23:48.193Z,0.00
2022-09-03T01:24:48.207Z,0.00
2022-09-03T01:25:48.229Z,0.00
2022-09-03T01:26:48.259Z,0.00
2022-09-03T01:27:48.282Z,0.00
2022-09-03T01:28:48.306Z,0.00
2022-09-03T01:29:48.331Z,0.00
2022-09-03T01:30:48.375Z,0.00
2022-09-03T01:31:48.391Z,0.00
2022-09-03T01:32:48.411Z,0.00
2022-09-03T01:33:48.434Z,0.00
2022-09-03T01:34:48.461Z,0.00
2022-09-03T01:35:48.495Z,0.00
2022-09-03T01:36:48.513Z,0.00
2022-09-03T01:37:48.538Z,0.00
2022-09-03T01:38:48.565Z,0.00
2022-09-03T01:39:48.639Z,0.00
2022-09-03T01:40:48.626Z,0.00
2022-09-03T01:41:48.663Z,0.00
2022-09-03T01:42:48.668Z,0.00
2022-09-03T01:43:48.690Z,0.00
2022-09-03T01:44:48.719Z,0.00
2022-09-03T01:45:51.213Z,0.00
2022-09-03T01:46:48.816Z,0.00
2022-09-03T01:47:48.799Z,0.00
2022-09-03T01:48:48.819Z,0.00
2022-09-03T01:49:48.846Z,0.00
2022-09-03T01:50:48.870Z,0.00
2022-09-03T01:51:48.905Z,0.00
2022-09-03T01:52:48.921Z,0.00
2022-09-03T01:53:48.947Z,0.00
2022-09-03T01:54:48.974Z,0.00
2022-09-03T01:55:49.001Z,0.00
2022-09-03T01:56:49.025Z,0.00
2022-09-03T01:57:49.052Z,0.00
2022-09-03T01:58:49.075Z,0.00
2022-09-03T01:59:49.100Z,0.00
2022-09-03T02:00:49.122Z,0.00
2022-09-03T02:01:49.169Z,0.00
2022-09-03T02:02:49.227Z,0.00
2022-09-03T02:03:49.207Z,0.00
2022-09-03T02:04:49.224Z,0.00
2022-09-03T02:05:49.247Z,0.00
2022-09-03T02:06:49.271Z,0.00
2022-09-03T02:07:49.308Z,0.00
2022-09-03T02:08:49.328Z,0.00
2022-09-03T02:09:49.354Z,0.00
2022-09-03T02:10:49.377Z,0.00
2022-09-03T02:11:49.403Z,0.00
2022-09-03T02:12:49.425Z,0.00
2022-09-03T02:13:49.453Z,0.00
2022-09-03T02:14:49.496Z,0.00
2022-09-03T02:15:49.548Z,0.00
2022-09-03T02:16:49.524Z,0.00
2022-09-03T02:17:49.553Z,0.00
2022-09-03T02:18:49.578Z,0.00
2022-09-03T02:19:49.604Z,0.00
2022-09-03T02:20:49.636Z,0.00
2022-09-03T02:21:49.663Z,0.00
2022-09-03T02:22:49.678Z,0.00
2022-09-03T02:23:49.704Z,0.00
2022-09-03T02:24:49.741Z,0.00
2022-09-03T02:25:49.752Z,0.00
2022-09-03T02:26:49.779Z,0.00
2022-09-03T02:27:49.805Z,0.00
2022-09-03T02:28:49.829Z,0.00
2022-09-03T02:29:49.853Z,0.00
2022-09-03T02:30:49.912Z,0.00
2022-09-03T02:31:49.904Z,0.00
2022-09-03T02:32:49.928Z,0.00
2022-09-03T02:33:49.954Z,0.00
2022-09-03T02:34:49.978Z,0.00
2022-09-03T02:35:50.003Z,0.00
2022-09-03T02:36:50.035Z,0.00
2022-09-03T02:37:50.048Z,0.00
2022-09-03T02:38:50.076Z,0.00
2022-09-03T02:39:50.151Z,0.00
2022-09-03T02:40:50.125Z,0.00
2022-09-03T02:41:50.153Z,0.00
2022-09-03T02:42:50.248Z,0.00
2022-09-03T02:43:50.200Z,0.00
2022-09-03T02:44:50.240Z,0.00
2022-09-03T02:45:50.281Z,0.00
2022-09-03T02:46:50.274Z,0.00
2022-09-03T02:47:50.309Z,0.00
2022-09-03T02:48:50.325Z,0.00
2022-09-03T02:49:50.351Z,0.00
2022-09-03T02:50:50.374Z,0.00
2022-09-03T02:51:50.400Z,0.00
2022-09-03T02:52:50.424Z,0.00
2022-09-03T02:53:50.930Z,0.00
2022-09-03T02:54:50.484Z,0.00
2022-09-03T02:55:50.497Z,0.00
2022-09-03T02:56:50.524Z,0.00
2022-09-03T02:57:50.547Z,0.00
2022-09-03T02:58:50.569Z,0.00
2022-09-03T02:59:50.602Z,0.00
2022-09-03T03:00:50.618Z,0.00
2022-09-03T03:01:50.667Z,0.00
2022-09-03T03:02:50.753Z,0.00
2022-09-03T03:03:50.695Z,0.00
2022-09-03T03:04:50.738Z,0.00
2022-09-03T03:05:50.746Z,0.00
2022-09-03T03:06:50.767Z,0.00
2022-09-03T03:07:50.811Z,0.00
2022-09-03T03:08:50.816Z,0.00
2022-09-03T03:09:50.841Z,0.00
2022-09-03T03:10:50.872Z,0.00
2022-09-03T03:11:50.891Z,0.00
2022-09-03T03:12:50.916Z,0.00
2022-09-03T03:13:50.940Z,0.00
2022-09-03T03:14:50.967Z,0.00
2022-09-03T03:15:50.989Z,0.00
2022-09-03T03:16:51.040Z,0.00
2022-09-03T03:17:51.039Z,0.00
2022-09-03T03:18:51.059Z,0.00
2022-09-03T03:19:51.086Z,0.00
2022-09-03T03:20:51.116Z,0.00
2022-09-03T03:21:51.136Z,0.00
2022-09-03T03:22:51.158Z,0.00
2022-09-03T03:23:51.187Z,0.00
2022-09-03T03:24:51.210Z,0.00
2022-09-03T03:25:51.231Z,0.00
2022-09-03T03:26:51.256Z,0.00
2022-09-03T03:27:51.284Z,0.00
2022-09-03T03:28:51.309Z,0.00
2022-09-03T03:29:51.329Z,0.00
2022-09-03T03:30:51.395Z,0.00
2022-09-03T03:31:51.380Z,0.00
2022-09-03T03:32:51.405Z,0.00
2022-09-03T03:33:51.429Z,0.00
2022-09-03T03:34:51.453Z,0.00
2022-09-03T03:35:51.483Z,0.00
2022-09-03T03:36:51.523Z,0.00
2022-09-03T03:37:51.528Z,0.00
2022-09-03T03:38:51.569Z,0.00
2022-09-03T03:39:51.607Z,0.00
2022-09-03T03:40:51.611Z,0.00
2022-09-03T03:41:51.622Z,0.00
2022-09-03T03:42:51.648Z,0.00
2022-09-03T03:43:51.669Z,0.00
2022-09-03T03:44:51.696Z,0.00
2022-09-03T03:45:51.754Z,0.00
2022-09-03T03:46:51.743Z,0.00
2022-09-03T03:47:51.767Z,0.00
2022-09-03T03:48:51.795Z,0.00
2022-09-03T03:49:51.823Z,0.00
2022-09-03T03:50:51.886Z,0.00
2022-09-03T03:51:51.874Z,0.00
2022-09-03T03:52:51.889Z,0.00
2022-09-03T03:53:51.914Z,0.00
2022-09-03T03:54:51.939Z,0.00
2022-09-03T03:55:51.963Z,0.00
2022-09-03T03:56:55.631Z,0.00
2022-09-03T03:57:52.009Z,0.00
2022-09-03T03:58:52.035Z,0.00
2022-09-03T03:59:52.061Z,0.00
2022-09-03T04:00:52.180Z,0.00
2022-09-03T04:01:52.106Z,0.00
2022-09-03T04:02:52.253Z,0.00
2022-09-03T04:03:52.159Z,0.00
2022-09-03T04:04:52.217Z,0.00
2022-09-03T04:05:52.206Z,4.00
2022-09-03T04:06:52.229Z,4.00
2022-09-03T04:07:52.256Z,0.00
2022-09-03T04:08:52.278Z,4.00
2022-09-03T04:09:52.304Z,4.00
2022-09-03T04:10:52.326Z,4.00
2022-09-03T04:11:52.354Z,4.00
2022-09-03T04:12:52.375Z,4.00
2022-09-03T04:13:52.400Z,4.00
2022-09-03T04:14:52.425Z,8.00
2022-09-03T04:15:52.448Z,8.00
2022-09-03T04:16:52.497Z,8.00
2022-09-03T04:17:52.497Z,12.00
2022-09-03T04:18:52.517Z,12.00
2022-09-03T04:19:52.546Z,16.00
2022-09-03T04:20:52.571Z,20.00
2022-09-03T04:21:52.596Z,24.00
2022-09-03T04:22:52.621Z,24.00
2022-09-03T04:23:52.643Z,28.00
2022-09-03T04:24:52.666Z,36.00
2022-09-03T04:25:52.691Z,40.00
2022-09-03T04:26:52.715Z,48.00
2022-09-03T04:27:52.743Z,56.00
2022-09-03T04:28:52.766Z,64.00
2022-09-03T04:29:52.784Z,72.00
2022-09-03T04:30:52.927Z,84.00
2022-09-03T04:31:52.836Z,96.00
2022-09-03T04:32:52.858Z,108.00
2022-09-03T04:33:52.891Z,124.00
2022-09-03T04:34:52.910Z,140.00
2022-09-03T04:35:52.934Z,156.00
2022-09-03T04:36:53.075Z,176.00
2022-09-03T04:37:52.981Z,196.00
2022-09-03T04:38:53.008Z,212.00
2022-09-03T04:39:53.082Z,236.00
2022-09-03T04:40:53.055Z,256.00
2022-09-03T04:41:53.080Z,284.00
2022-09-03T04:42:53.101Z,308.00
2022-09-03T04:43:53.127Z,336.00
2022-09-03T04:44:53.153Z,364.00
2022-09-03T04:45:53.232Z,392.00
2022-09-03T04:46:53.200Z,424.00
2022-09-03T04:47:53.225Z,460.00
2022-09-03T04:48:53.252Z,496.00
2022-09-03T04:49:53.272Z,532.00
2022-09-03T04:50:53.296Z,572.00
2022-09-03T04:51:53.321Z,616.00
2022-09-03T04:52:53.343Z,664.00
2022-09-03T04:53:53.372Z,712.00
2022-09-03T04:54:53.393Z,760.00
2022-09-03T04:55:53.420Z,812.00
2022-09-03T04:56:53.444Z,864.00
2022-09-03T04:57:53.466Z,916.00
2022-09-03T04:58:53.490Z,976.00
2022-09-03T04:59:53.516Z,1032.00
2022-09-03T05:00:53.592Z,1088.00
2022-09-03T05:01:53.615Z,1148.00
2022-09-03T05:02:53.583Z,1208.00
2022-09-03T05:03:53.615Z,1264.00
2022-09-03T05:04:53.638Z,1328.00
2022-09-03T05:05:53.671Z,1388.00
2022-09-03T05:06:53.687Z,1444.00
2022-09-03T05:07:53.710Z,1504.00
2022-09-03T05:08:53.733Z,1564.00
2022-09-03T05:09:53.759Z,1620.00
2022-09-03T05:10:55.095Z,1680.00
2022-09-03T05:11:53.808Z,1732.00
2022-09-03T05:12:53.836Z,1788.00
2022-09-03T05:13:53.859Z,1844.00
2022-09-03T05:14:53.880Z,1896.00
2022-09-03T05:15:53.907Z,1948.00
2022-09-03T05:16:53.971Z,1996.00
2022-09-03T05:17:53.953Z,2044.00
2022-09-03T05:18:53.978Z,2088.00
2022-09-03T05:19:54.002Z,2132.00
2022-09-03T05:20:54.028Z,2176.00
2022-09-03T05:21:54.049Z,2220.00
2022-09-03T05:22:54.077Z,2268.00
2022-09-03T05:23:54.103Z,2308.00
2022-09-03T05:24:54.125Z,2348.00
2022-09-03T05:25:54.147Z,2380.00
2022-09-03T05:26:54.171Z,2416.00
2022-09-03T05:27:54.201Z,2456.00
2022-09-03T05:28:54.223Z,2488.00
2022-09-03T05:29:54.244Z,2516.00
2022-09-03T05:30:54.281Z,2544.00
2022-09-03T05:31:54.319Z,2564.00
2022-09-03T05:32:54.333Z,2560.00
2022-09-03T05:33:54.346Z,2556.00
2022-09-03T05:34:54.369Z,2536.00
2022-09-03T05:35:54.395Z,2516.00
2022-09-03T05:36:54.422Z,2504.00
2022-09-03T05:37:54.446Z,2512.00
2022-09-03T05:38:54.469Z,2516.00
2022-09-03T05:39:54.613Z,2520.00
2022-09-03T05:40:54.520Z,2524.00
2022-09-03T05:41:54.546Z,2528.00
2022-09-03T05:42:54.568Z,2540.00
2022-09-03T05:43:54.595Z,2564.00
2022-09-03T05:44:54.615Z,2604.00
2022-09-03T05:45:54.660Z,2664.00
2022-09-03T05:46:54.668Z,2732.00
2022-09-03T05:47:54.688Z,2808.00
2022-09-03T05:48:54.718Z,2888.00
2022-09-03T05:49:54.745Z,2948.00
2022-09-03T05:50:54.766Z,2992.00
2022-09-03T05:51:54.790Z,3028.00
2022-09-03T05:52:54.821Z,3044.00
2022-09-03T05:53:54.841Z,3072.00
2022-09-03T05:54:54.866Z,3132.00
2022-09-03T05:55:54.890Z,3180.00
2022-09-03T05:56:54.919Z,3292.00
2022-09-03T05:57:54.942Z,3460.00
2022-09-03T05:58:54.965Z,3620.00
2022-09-03T05:59:54.990Z,3880.00
2022-09-03T06:00:55.016Z,3640.00
2022-09-03T06:01:59.393Z,3332.00
2022-09-03T06:02:55.387Z,3372.00
2022-09-03T06:03:55.091Z,3464.00
2022-09-03T06:04:55.118Z,4416.00
2022-09-03T06:05:55.143Z,6176.00
2022-09-03T06:06:55.165Z,7176.00
2022-09-03T06:07:55.196Z,8276.00
2022-09-03T06:08:55.220Z,8352.00
2022-09-03T06:09:55.240Z,9496.00
2022-09-03T06:10:55.269Z,11520.00
2022-09-03T06:11:57.317Z,12024.00
2022-09-03T06:12:55.319Z,11524.00
2022-09-03T06:13:55.345Z,10872.00
2022-09-03T06:14:55.371Z,10932.00
2022-09-03T06:15:55.401Z,11136.00
2022-09-03T06:16:55.462Z,11028.00
2022-09-03T06:17:55.449Z,10892.00
2022-09-03T06:18:55.482Z,10620.00
2022-09-03T06:19:55.505Z,10408.00
2022-09-03T06:20:55.552Z,9016.00
2022-09-03T06:21:55.559Z,8740.00
2022-09-03T06:22:55.586Z,8632.00
2022-09-03T06:23:55.611Z,8456.00
2022-09-03T06:24:55.664Z,8832.00
2022-09-03T06:25:55.670Z,10080.00
2022-09-03T06:26:55.692Z,9484.00
2022-09-03T06:27:55.724Z,9684.00
2022-09-03T06:28:55.750Z,9228.00
2022-09-03T06:29:55.773Z,9408.00
2022-09-03T06:30:55.807Z,9760.00
2022-09-03T06:31:55.918Z,9744.00
2022-09-03T06:32:55.876Z,8300.00
2022-09-03T06:33:57.759Z,9516.00
2022-09-03T06:34:55.922Z,9424.00
2022-09-03T06:35:55.946Z,11560.00
2022-09-03T06:36:55.976Z,12624.00
2022-09-03T06:37:56.002Z,12616.00
2022-09-03T06:38:56.032Z,14336.00
2022-09-03T06:39:56.099Z,14804.00
2022-09-03T06:40:56.087Z,14300.00
2022-09-03T06:41:56.115Z,14940.00
2022-09-03T06:42:56.143Z,13708.00
2022-09-03T06:43:56.170Z,16512.00
2022-09-03T06:44:56.200Z,17856.00
2022-09-03T06:45:56.278Z,19424.00
2022-09-03T06:46:56.254Z,15048.00
2022-09-03T06:47:56.284Z,7424.00
2022-09-03T06:48:56.312Z,4968.00
2022-09-03T06:49:56.341Z,4716.00
2022-09-03T06:50:56.369Z,4604.00
2022-09-03T06:51:56.396Z,4596.00
2022-09-03T06:52:56.424Z,4604.00
2022-09-03T06:53:56.477Z,4596.00
2022-09-03T06:54:56.479Z,4560.00
2022-09-03T06:55:56.516Z,4536.00
2022-09-03T06:56:56.538Z,4508.00
2022-09-03T06:57:56.571Z,4492.00
2022-09-03T06:58:56.600Z,4476.00
2022-09-03T06:59:56.622Z,4436.00
2022-09-03T07:00:56.787Z,4392.00
2022-09-03T07:01:56.773Z,4360.00
2022-09-03T07:02:56.711Z,4392.00
2022-09-03T07:03:56.740Z,4392.00
2022-09-03T07:04:56.767Z,4408.00
2022-09-03T07:05:56.793Z,4456.00
2022-09-03T07:06:56.818Z,4480.00
2022-09-03T07:07:56.847Z,4468.00
2022-09-03T07:08:56.877Z,4432.00
2022-09-03T07:09:56.903Z,4384.00
2022-09-03T07:10:56.929Z,4384.00
2022-09-03T07:11:56.959Z,4404.00
2022-09-03T07:12:56.996Z,4420.00
2022-09-03T07:13:57.014Z,4456.00
2022-09-03T07:14:57.045Z,4460.00
2022-09-03T07:15:57.159Z,4460.00
2022-09-03T07:16:57.102Z,4444.00
2022-09-03T07:17:57.122Z,4436.00
2022-09-03T07:18:57.148Z,4412.00
2022-09-03T07:19:57.176Z,4384.00
2022-09-03T07:20:57.204Z,4364.00
2022-09-03T07:21:57.234Z,4336.00
2022-09-03T07:22:57.257Z,4312.00
2022-09-03T07:24:04.451Z,4284.00
2022-09-03T07:26:01.784Z,4244.00
2022-09-03T07:27:01.325Z,4224.00
2022-09-03T07:29:05.352Z,4180.00
2022-09-03T07:30:05.370Z,4164.00
2022-09-03T07:32:09.890Z,4056.00
2022-09-03T07:33:09.416Z,4028.00
2022-09-03T07:35:13.451Z,4008.00
2022-09-03T07:36:13.463Z,4004.00
2022-09-03T07:38:06.949Z,3984.00
2022-09-03T07:39:06.631Z,3980.00
2022-09-03T07:40:59.577Z,3976.00
2022-09-03T07:41:59.602Z,3976.00
2022-09-03T07:44:04.094Z,3964.00
2022-09-03T07:45:03.634Z,3956.00
2022-09-03T07:47:07.663Z,3940.00
2022-09-03T07:48:07.683Z,3920.00
2022-09-03T07:50:12.184Z,3884.00
2022-09-03T07:51:11.727Z,3872.00
2022-09-03T07:53:15.749Z,3884.00
2022-09-03T07:54:15.770Z,3880.00
2022-09-03T07:56:20.269Z,3880.00
2022-09-03T07:57:19.805Z,3888.00
2022-09-03T07:59:23.823Z,3884.00
2022-09-03T08:00:23.885Z,3888.00
2022-09-03T08:02:28.343Z,3876.00
2022-09-03T08:03:27.947Z,3880.00
2022-09-03T08:05:31.914Z,3868.00
2022-09-03T08:06:31.945Z,3860.00
2022-09-03T08:08:36.440Z,3860.00
2022-09-03T08:09:35.985Z,3852.00
2022-09-03T08:11:40.010Z,3848.00
2022-09-03T08:12:40.036Z,3844.00
2022-09-03T08:14:33.524Z,3840.00
2022-09-03T08:15:33.198Z,3840.00
2022-09-03T08:17:37.236Z,3844.00
2022-09-03T08:18:37.249Z,3840.00
2022-09-03T08:20:30.734Z,3836.00
2022-09-03T08:21:30.213Z,3812.00
2022-09-03T08:23:34.261Z,3720.00
2022-09-03T08:24:34.281Z,3708.00
2022-09-03T08:26:38.784Z,3676.00
2022-09-03T08:27:38.322Z,3652.00
2022-09-03T08:29:42.350Z,3592.00
2022-09-03T08:30:42.366Z,3576.00
2022-09-03T08:32:46.884Z,3564.00
2022-09-03T08:33:46.404Z,3560.00
2022-09-03T08:35:50.432Z,3556.00
2022-09-03T08:36:50.495Z,3560.00
2022-09-03T08:38:54.949Z,3548.00
2022-09-03T08:39:54.513Z,3548.00
2022-09-03T08:41:58.527Z,3548.00
2022-09-03T08:42:58.548Z,3560.00
2022-09-03T08:45:03.047Z,3580.00
2022-09-03T08:46:02.684Z,3576.00
2022-09-03T08:48:07.589Z,3556.00
2022-09-03T08:49:07.130Z,3552.00
2022-09-03T08:50:07.153Z,3548.00
2022-09-03T08:51:07.188Z,3544.00
2022-09-03T08:52:07.214Z,3548.00
2022-09-03T08:53:07.246Z,3540.00
2022-09-03T08:54:07.289Z,3544.00
2022-09-03T08:55:07.303Z,3544.00
2022-09-03T08:56:07.345Z,3536.00
2022-09-03T08:57:07.368Z,3532.00
2022-09-03T08:58:07.391Z,3528.00
2022-09-03T08:59:07.416Z,3520.00
2022-09-03T09:00:07.444Z,3516.00
2022-09-03T09:01:07.472Z,3512.00
2022-09-03T09:02:07.690Z,3508.00
2022-09-03T09:03:07.588Z,3504.00
2022-09-03T09:04:07.569Z,3500.00
2022-09-03T09:05:09.992Z,3500.00
2022-09-03T09:06:07.620Z,3492.00
2022-09-03T09:07:07.660Z,3496.00
2022-09-03T09:08:07.680Z,3492.00
2022-09-03T09:09:07.708Z,3488.00
2022-09-03T09:10:07.736Z,3476.00
2022-09-03T09:11:07.768Z,3468.00
2022-09-03T09:12:07.794Z,3464.00
2022-09-03T09:13:07.826Z,3464.00
2022-09-03T09:14:07.855Z,3460.00
2022-09-03T09:15:07.881Z,3452.00
2022-09-03T09:16:07.962Z,3444.00
2022-09-03T09:17:07.947Z,3436.00
2022-09-03T09:18:07.971Z,3432.00
2022-09-03T09:19:07.996Z,3436.00
2022-09-03T09:20:08.026Z,3452.00
2022-09-03T09:21:08.061Z,3460.00
2022-09-03T09:22:08.088Z,3460.00
2022-09-03T09:23:08.115Z,3448.00
2022-09-03T09:24:08.146Z,3436.00
2022-09-03T09:25:08.175Z,3428.00
2022-09-03T09:26:08.204Z,3416.00
2022-09-03T09:27:10.763Z,3412.00
2022-09-03T09:28:08.264Z,3408.00
2022-09-03T09:29:08.847Z,3400.00
2022-09-03T09:30:08.320Z,3392.00
2022-09-03T09:31:08.393Z,3384.00
2022-09-03T09:32:08.379Z,3376.00
2022-09-03T09:33:08.416Z,3372.00
2022-09-03T09:34:08.442Z,3364.00
2022-09-03T09:35:08.471Z,3360.00
2022-09-03T09:36:08.527Z,3352.00
2022-09-03T09:37:08.532Z,3352.00
2022-09-03T09:38:08.565Z,3348.00
2022-09-03T09:39:08.589Z,3356.00
2022-09-03T09:40:08.618Z,3356.00
2022-09-03T09:41:08.648Z,3356.00
2022-09-03T09:42:08.675Z,3356.00
2022-09-03T09:43:08.705Z,3348.00
2022-09-03T09:44:08.821Z,3344.00
2022-09-03T09:45:08.797Z,3344.00
2022-09-03T09:46:08.816Z,3340.00
2022-09-03T09:47:08.824Z,3348.00
2022-09-03T09:48:08.855Z,3356.00
2022-09-03T09:49:08.888Z,3364.00
2022-09-03T09:50:08.911Z,3368.00
2022-09-03T09:51:08.953Z,3364.00
2022-09-03T09:52:08.972Z,3376.00
2022-09-03T09:53:09.007Z,3384.00
2022-09-03T09:54:09.034Z,3384.00
2022-09-03T09:55:09.062Z,3380.00
2022-09-03T09:56:09.091Z,3372.00
2022-09-03T09:57:09.125Z,3364.00
2022-09-03T09:58:14.068Z,3356.00
2022-09-03T09:59:09.182Z,3348.00
2022-09-03T10:00:09.208Z,3348.00
2022-09-03T10:01:09.287Z,3340.00
2022-09-03T10:02:09.271Z,3336.00
2022-09-03T10:03:09.334Z,3324.00
2022-09-03T10:04:09.332Z,3316.00
2022-09-03T10:05:09.396Z,3312.00
2022-09-03T10:06:09.388Z,3304.00
2022-09-03T10:07:09.417Z,3296.00
2022-09-03T10:08:09.462Z,3292.00
2022-09-03T10:09:09.497Z,3280.00
2022-09-03T10:10:09.511Z,3280.00
2022-09-03T10:11:09.539Z,3276.00
2022-09-03T10:12:09.569Z,3272.00
2022-09-03T10:13:09.601Z,3260.00
2022-09-03T10:14:09.624Z,3264.00
2022-09-03T10:15:09.657Z,3260.00
2022-09-03T10:16:09.719Z,3256.00
2022-09-03T10:17:09.723Z,3256.00
2022-09-03T10:18:09.748Z,3260.00
2022-09-03T10:19:09.778Z,3256.00
2022-09-03T10:20:09.812Z,3252.00
2022-09-03T10:21:09.849Z,3244.00
2022-09-03T10:22:09.865Z,3244.00
2022-09-03T10:23:09.899Z,3240.00
2022-09-03T10:24:09.928Z,3236.00
2022-09-03T10:25:09.957Z,3232.00
2022-09-03T10:26:09.987Z,3224.00
2022-09-03T10:27:10.019Z,3216.00
2022-09-03T10:28:10.047Z,3208.00
2022-09-03T10:29:10.078Z,3204.00
2022-09-03T10:30:10.104Z,3200.00
2022-09-03T10:31:10.190Z,3204.00
2022-09-03T10:32:10.177Z,3204.00
2022-09-03T10:33:10.197Z,3196.00
2022-09-03T10:34:10.227Z,3196.00
2022-09-03T10:35:10.286Z,3192.00
2022-09-03T10:36:10.291Z,3188.00
2022-09-03T10:37:10.320Z,3184.00
2022-09-03T10:38:10.347Z,3184.00
2022-09-03T10:39:10.381Z,3176.00
2022-09-03T10:40:10.484Z,3172.00
2022-09-03T10:41:10.442Z,3176.00
2022-09-03T10:42:10.473Z,3184.00
2022-09-03T10:43:10.517Z,3188.00
2022-09-03T10:44:10.530Z,3188.00
2022-09-03T10:45:10.572Z,3196.00
2022-09-03T10:46:10.672Z,3208.00
2022-09-03T10:47:10.621Z,3216.00
2022-09-03T10:48:10.650Z,3220.00
2022-09-03T10:49:10.689Z,3220.00
2022-09-03T10:50:10.711Z,3212.00
2022-09-03T10:51:10.747Z,3212.00
2022-09-03T10:52:10.774Z,3212.00
2022-09-03T10:53:10.807Z,3204.00
2022-09-03T10:54:10.834Z,3200.00
2022-09-03T10:55:10.868Z,3208.00
2022-09-03T10:56:10.909Z,3212.00
2022-09-03T10:57:10.925Z,3216.00
2022-09-03T10:58:10.953Z,3224.00
2022-09-03T10:59:10.988Z,3236.00
2022-09-03T11:00:11.015Z,3240.00
2022-09-03T11:01:11.084Z,3248.00
2022-09-03T11:02:11.147Z,3256.00
2022-09-03T11:03:11.109Z,3256.00
2022-09-03T11:04:11.138Z,3256.00
2022-09-03T11:05:11.168Z,3252.00
2022-09-03T11:06:11.195Z,3256.00
2022-09-03T11:07:11.233Z,3260.00
2022-09-03T11:08:11.256Z,3252.00
2022-09-03T11:09:11.289Z,3252.00
2022-09-03T11:10:11.344Z,3244.00
2022-09-03T11:11:11.351Z,3232.00
2022-09-03T11:12:11.380Z,3228.00
2022-09-03T11:13:11.412Z,3212.00
2022-09-03T11:14:11.447Z,3220.00
2022-09-03T11:15:11.474Z,3192.00
2022-09-03T11:16:11.583Z,3160.00
2022-09-03T11:17:11.533Z,3204.00
2022-09-03T11:18:11.564Z,3316.00
2022-09-03T11:19:11.594Z,3536.00
2022-09-03T11:20:11.628Z,3612.00
2022-09-03T11:21:12.320Z,3708.00
2022-09-03T11:22:11.685Z,3864.00
2022-09-03T11:23:11.716Z,4020.00
2022-09-03T11:24:11.749Z,4108.00
2022-09-03T11:25:11.780Z,4176.00
2022-09-03T11:26:11.812Z,4092.00
2022-09-03T11:27:11.842Z,4136.00
2022-09-03T11:28:11.879Z,4252.00
2022-09-03T11:29:11.903Z,4304.00
2022-09-03T11:30:11.931Z,4444.00
2022-09-03T11:31:12.006Z,4828.00
2022-09-03T11:32:12.013Z,5236.00
2022-09-03T11:33:12.024Z,5420.00
2022-09-03T11:34:12.055Z,5384.00
2022-09-03T11:35:12.084Z,5464.00
2022-09-03T11:36:12.119Z,5112.00
2022-09-03T11:37:12.150Z,4664.00
2022-09-03T11:38:12.173Z,4272.00
2022-09-03T11:39:12.205Z,4000.00
2022-09-03T11:40:12.244Z,3844.00
2022-09-03T11:41:12.269Z,3760.00
2022-09-03T11:42:12.297Z,3772.00
2022-09-03T11:43:12.331Z,3892.00
2022-09-03T11:44:12.360Z,3996.00
2022-09-03T11:45:12.393Z,4248.00
2022-09-03T11:46:12.501Z,4348.00
2022-09-03T11:47:12.466Z,4528.00
2022-09-03T11:48:12.481Z,4516.00
2022-09-03T11:49:12.517Z,4128.00
2022-09-03T11:50:12.564Z,3916.00
2022-09-03T11:51:12.576Z,3856.00
2022-09-03T11:52:12.608Z,4108.00
2022-09-03T11:53:12.639Z,4236.00
2022-09-03T11:54:12.674Z,4376.00
2022-09-03T11:55:12.700Z,4652.00
2022-09-03T11:56:12.734Z,5068.00
2022-09-03T11:57:12.760Z,5920.00
2022-09-03T11:58:12.798Z,6904.00
2022-09-03T11:59:12.828Z,7476.00
2022-09-03T12:00:12.935Z,7920.00
2022-09-03T12:01:16.099Z,8548.00
2022-09-03T12:02:12.962Z,9384.00
2022-09-03T12:03:12.947Z,10228.00
2022-09-03T12:04:13.003Z,10868.00
2022-09-03T12:05:13.028Z,11000.00
2022-09-03T12:06:13.044Z,10716.00
2022-09-03T12:07:13.070Z,10364.00
2022-09-03T12:08:13.103Z,10124.00
2022-09-03T12:09:13.135Z,9700.00
2022-09-03T12:10:13.170Z,9532.00
2022-09-03T12:11:13.197Z,9576.00
2022-09-03T12:12:13.227Z,9656.00
2022-09-03T12:13:13.261Z,9716.00
2022-09-03T12:14:14.008Z,9536.00
2022-09-03T12:15:13.325Z,9724.00
2022-09-03T12:16:13.383Z,9940.00
2022-09-03T12:17:13.391Z,10316.00
2022-09-03T12:18:13.431Z,10740.00
2022-09-03T12:19:13.455Z,11020.00
2022-09-03T12:20:13.484Z,11192.00
2022-09-03T12:21:13.519Z,11416.00
2022-09-03T12:22:13.551Z,11584.00
2022-09-03T12:23:13.579Z,11856.00
2022-09-03T12:24:13.614Z,11928.00
2022-09-03T12:25:13.650Z,11936.00
2022-09-03T12:26:13.681Z,11856.00
2022-09-03T12:27:13.711Z,11952.00
2022-09-03T12:28:13.739Z,12084.00
2022-09-03T12:29:13.776Z,11980.00
2022-09-03T12:30:13.803Z,11804.00
2022-09-03T12:31:13.882Z,11676.00
2022-09-03T12:32:13.874Z,11572.00
2022-09-03T12:33:13.907Z,11648.00
2022-09-03T12:34:13.937Z,11768.00
2022-09-03T12:35:14.338Z,11748.00
2022-09-03T12:36:14.005Z,11616.00
2022-09-03T12:37:14.036Z,11468.00
2022-09-03T12:38:18.527Z,11200.00
2022-09-03T12:39:14.166Z,11012.00
2022-09-03T12:40:14.155Z,10920.00
2022-09-03T12:41:23.426Z,10928.00
2022-09-03T12:42:14.199Z,11004.00
2022-09-03T12:44:14.262Z,11064.00
2022-09-03T12:45:14.296Z,10972.00
2022-09-03T12:46:14.326Z,10996.00
2022-09-03T12:48:14.397Z,11316.00
2022-09-03T12:49:30.501Z,11132.00
2022-09-03T12:50:14.458Z,11000.00
2022-09-03T12:52:14.522Z,10980.00
2022-09-03T12:53:14.559Z,10948.00
2022-09-03T12:54:14.589Z,11048.00
2022-09-03T12:55:14.621Z,11372.00
2022-09-03T12:56:14.657Z,11648.00
2022-09-03T12:57:14.685Z,11488.00
2022-09-03T12:58:14.722Z,11156.00
2022-09-03T12:59:14.757Z,10928.00
2022-09-03T13:00:14.788Z,10656.00
2022-09-03T13:01:14.929Z,10320.00
2022-09-03T13:02:14.951Z,10212.00
2022-09-03T13:03:14.887Z,10120.00
2022-09-03T13:04:14.922Z,9936.00
2022-09-03T13:05:14.955Z,9696.00
2022-09-03T13:06:14.990Z,9376.00
2022-09-03T13:07:15.015Z,9308.00
2022-09-03T13:08:15.054Z,9468.00
2022-09-03T13:09:15.088Z,9604.00